Aérodrome :
LOGIN :

S'inscrire | Disclaimer

   EN    FR    IT 

 










Légende :    VFR   VFR Marginal   IFR   IFR Intensif   IFR Très Intensif
Visi : 
Plafond : 
>= 8 km
>= 3000ft
5 à 8 km
1000 à 3000 ft
1500m à 5 km
500 à 1000 ft
800 à 1500m
200 à 500 ft
< 800m
< 200 ft
Symboles :   Orages  Brouillard  Fortes neiges  Fortes précipitations  Vent > 20 kt
SIGMETs :   Divers  Orages  Givrage  Turbulence  Onde Orograph.  Cendres Volcan.






- Altitude de l'aérodrome : 364 ft


LFAQ - Albert Bray

DERNIER METAR :
  • 021800Z AUTO 31012KT CAVOK 22/13 Q1018

METARs EXPIRÉS :
  • 021730Z AUTO 20006KT CAVOK 23/10 Q1017 BECMG 30010KT
  • 021700Z AUTO 19005KT 160V220 CAVOK 24/11 Q1018 BECMG 30010KT
  • 021630Z AUTO 23005KT 200V260 CAVOK 23/10 Q1018 NOSIG
  • 021600Z AUTO 18007KT 150V220 CAVOK 24/09 Q1018 BECMG 30010KT
  • 021530Z AUTO 19004KT 100V260 CAVOK 24/09 Q1018 NOSIG

TAF TAF LFAQ
Valide du 02 à 15h jusqu'au 03 à 00h UTC


021400Z 0215/0224 20008KT CAVOK
BECMG 0216/0218 30010KT
BECMG 0220/0223 VRB03KT



MET'MAP, la Météo Aéronautique d'un coup d'oeil ! - Copyright ORBIFLY Décembre 2007 - Disclaimer

ORBIFLY MET'MAP TEAM :

Programmation & Développement : Alexandra Zaïnal
Sur une idée originale de : Baudouin d'Aumeries
Soutien technique & logistique : Manuel Goepfert
Assistance : Marc-Olivier Méhu




SOURCES & CREDITS :

   NOAA